Página principal
METAR-TAF:

METAR-TAF

Aeroportos :

Lanzhou, China

latitude: 36-02N, longitude: 103-52E, altura: 1518 m

Observação actual do tempo

O boletim foi feito há 1 hora e 9 minutos, às 13:00 UTC
Vento 6 kt de norte
Temperatura -8°C
Humidade 52%
Pressão 1020 hPa
Visibilidade 10 km ou mais
sem nuvens abaixo de 1500 metros e sem cumulonimbus

METAR: ZLLL 181300Z 36003MPS CAVOK M08/M16 Q1020 NOSIG

Hora: 22:09 (14:09 UTC)

Previsão

O boletim foi feito há 5 horas e 6 minutos, às 09:03 UTC
Previsão válida de 18 às 12 UTC a 19 às 12 UTC
Vento 6 kt de norte
Visibilidade: 5000 m
fumo

TAF: ZLLL 180903Z 1812/1912 36003MPS 5000 FU NSC TX05/1908Z TNM13/23Z

Observações e previsões do tempo de mais de 4000 aeroportos (mensagens METAR e TAF).

As estações disponíveis são os pontos amarelos e vermelhos sobre o mapa.

Mova o rato sobre o mapa para ver o nome da estação.

Depois clique no ponto para visualizar as observações e previsões meteorológicas.

Para alterar o mapa : clique nos botões verdes com uma cruz preta para aumentar o zoom; no botão verde com uma pitada de zoom; ou nas setas verdes para mapas adjacentes.


METAR-TAF: